Hlavní strana
METAR-TAF:

METAR-TAF

Letiště :

Simferopol, Rusko

zeměpisná šířka: 45-03-08N, zeměpisná délka: 033-58-31E, výška: 195 m

Aktuální stav počasí

Zpráva byla vytvořena před 32 minutami, v 23:00 UTC
Jihojihozápadní vítr 12 kt
Teplota 12°C
Vlhkost vzduchu 58%
Tlak 1016 hPa
Viditelnost 10 km a více
Žádná oblačnost pod 1500 m, nevyskytují se cumulonimby.

METAR: URFF 212300Z 20006MPS CAVOK 12/04 Q1016 R19/090095 NOSIG

Čas: 02:32 (23:32 UTC)

Předpověď počasí

Zpráva byla vytvořena před 3 hodinami a 41 minutami, v 19:51 UTC
Předpověď platná od 21 v 21 UTC do 22 v 21 UTC
Jižní vítr 6 kt
Viditelnost: 6000 m
Oblačno až skoro zataženo ve výšce 1600 ft
Od 22 v 0700 UTC
Jihozápadní vítr 14 kt s nárazy do 25 kt
Viditelnost 10 km a více
Polojasno ve výšce 3000 ft, Cumulonimbus.
Od 22 v 1800 UTC
Jihojihozápadní vítr 6 kt
Viditelnost 10 km a více
Polojasno ve výšce 2000 ft

TAF: URFF 211951Z 2121/2221 17003MPS 6000 BKN016 TX21/2212Z TN08/2203Z FM220700 23007G13MPS 9999 SCT030CB FM221800 20003MPS 9999 SCT020

Stav a předpovědi počasí z více než 4 000 letišť (zprávy METAR a TAF).

Červené a žluté tečky na mapě představují dostupné meteorologické stanice.

Když kurzor umístíte na tečku, zobrazí se název stanice.

Pak kliknutím zobrazíte stav a předpověď počasí.

Chcete-li změnit mapu, kliknutím na zelené tlačítko se znaménkem +mapu přiblížíte, kliknutím na zelené tlačítko se znaménkem – mapu oddálíte a kliknutím na zelené šipky přejdete na sousední mapy.


METAR-TAF: